sensor_id;sensor_type;location;lat;lon;timestamp;pressure;altitude;pressure_sealevel;temperature;humidity
41254;BME280;26987;59.928;30.306;2023-03-13T00:01:45;99399.53;;;-4.36;75.83
41254;BME280;26987;59.928;30.306;2023-03-13T00:04:13;99387.28;;;-4.35;75.73
41254;BME280;26987;59.928;30.306;2023-03-13T00:06:42;99394.84;;;-4.32;76.88
41254;BME280;26987;59.928;30.306;2023-03-13T00:09:11;99388.25;;;-4.36;77.08
41254;BME280;26987;59.928;30.306;2023-03-13T00:11:41;99397.44;;;-4.32;76.85
41254;BME280;26987;59.928;30.306;2023-03-13T00:14:10;99383.56;;;-4.33;77.35
41254;BME280;26987;59.928;30.306;2023-03-13T00:16:38;99387.81;;;-4.32;75.98
41254;BME280;26987;59.928;30.306;2023-03-13T00:19:07;99382.06;;;-4.35;76.13
41254;BME280;26987;59.928;30.306;2023-03-13T00:21:35;99398.28;;;-4.32;76.25
41254;BME280;26987;59.928;30.306;2023-03-13T00:24:04;99407.78;;;-4.31;75.66
41254;BME280;26987;59.928;30.306;2023-03-13T00:26:32;99402.44;;;-4.39;75.66
41254;BME280;26987;59.928;30.306;2023-03-13T00:28:59;99407.91;;;-4.32;75.56
41254;BME280;26987;59.928;30.306;2023-03-13T00:31:30;99392.81;;;-4.38;75.93
41254;BME280;26987;59.928;30.306;2023-03-13T00:33:59;99367.91;;;-4.62;75.98
41254;BME280;26987;59.928;30.306;2023-03-13T00:36:29;99404.94;;;-4.37;75.06
41254;BME280;26987;59.928;30.306;2023-03-13T00:38:57;99408.09;;;-4.44;74.80
41254;BME280;26987;59.928;30.306;2023-03-13T00:41:28;99410.03;;;-4.46;74.51
41254;BME280;26987;59.928;30.306;2023-03-13T00:43:56;99386.97;;;-4.70;73.73
41254;BME280;26987;59.928;30.306;2023-03-13T00:46:25;99418.16;;;-4.49;73.52
41254;BME280;26987;59.928;30.306;2023-03-13T00:48:55;99415.13;;;-4.44;73.32
41254;BME280;26987;59.928;30.306;2023-03-13T00:51:24;99410.31;;;-4.49;72.55
41254;BME280;26987;59.928;30.306;2023-03-13T00:53:52;99420.50;;;-4.46;71.44
41254;BME280;26987;59.928;30.306;2023-03-13T00:56:21;99431.25;;;-4.49;71.65
41254;BME280;26987;59.928;30.306;2023-03-13T00:58:49;99423.84;;;-4.53;71.72
41254;BME280;26987;59.928;30.306;2023-03-13T01:01:19;99408.97;;;-4.73;72.08
41254;BME280;26987;59.928;30.306;2023-03-13T01:03:50;99436.50;;;-4.59;72.69
41254;BME280;26987;59.928;30.306;2023-03-13T01:06:22;99428.53;;;-4.77;73.03
41254;BME280;26987;59.928;30.306;2023-03-13T01:08:50;99431.31;;;-4.88;73.65
41254;BME280;26987;59.928;30.306;2023-03-13T01:11:21;99443.81;;;-4.92;74.29
41254;BME280;26987;59.928;30.306;2023-03-13T01:13:53;99455.78;;;-4.89;74.06
41254;BME280;26987;59.928;30.306;2023-03-13T01:16:22;99449.47;;;-4.97;74.23
41254;BME280;26987;59.928;30.306;2023-03-13T01:18:53;99460.19;;;-5.00;74.90
41254;BME280;26987;59.928;30.306;2023-03-13T01:21:24;99461.03;;;-5.09;74.37
41254;BME280;26987;59.928;30.306;2023-03-13T01:23:53;99448.34;;;-5.24;74.12
41254;BME280;26987;59.928;30.306;2023-03-13T01:26:21;99448.75;;;-5.38;74.63
41254;BME280;26987;59.928;30.306;2023-03-13T01:28:50;99444.75;;;-5.42;75.45
41254;BME280;26987;59.928;30.306;2023-03-13T01:31:20;99468.00;;;-5.29;75.53
41254;BME280;26987;59.928;30.306;2023-03-13T01:33:50;99461.94;;;-5.30;75.55
41254;BME280;26987;59.928;30.306;2023-03-13T01:36:18;99477.25;;;-5.15;75.20
41254;BME280;26987;59.928;30.306;2023-03-13T01:38:49;99484.44;;;-5.08;74.92
41254;BME280;26987;59.928;30.306;2023-03-13T01:41:18;99483.06;;;-5.02;74.25
41254;BME280;26987;59.928;30.306;2023-03-13T01:43:46;99485.81;;;-5.03;74.26
41254;BME280;26987;59.928;30.306;2023-03-13T01:46:17;99488.56;;;-5.05;74.33
41254;BME280;26987;59.928;30.306;2023-03-13T01:49:11;99497.06;;;-5.13;74.60
41254;BME280;26987;59.928;30.306;2023-03-13T01:51:53;99495.53;;;-5.25;74.34
41254;BME280;26987;59.928;30.306;2023-03-13T01:54:27;99489.31;;;-5.34;74.53
41254;BME280;26987;59.928;30.306;2023-03-13T01:56:58;99491.78;;;-5.42;74.67
41254;BME280;26987;59.928;30.306;2023-03-13T01:59:30;99517.59;;;-5.49;74.87
41254;BME280;26987;59.928;30.306;2023-03-13T02:02:01;99518.81;;;-5.63;75.58
41254;BME280;26987;59.928;30.306;2023-03-13T02:04:34;99483.19;;;-5.96;76.31
41254;BME280;26987;59.928;30.306;2023-03-13T02:07:06;99522.72;;;-5.79;76.34
41254;BME280;26987;59.928;30.306;2023-03-13T02:09:38;99532.03;;;-5.86;76.61
41254;BME280;26987;59.928;30.306;2023-03-13T02:12:09;99526.75;;;-5.96;76.76
41254;BME280;26987;59.928;30.306;2023-03-13T02:14:41;99490.34;;;-6.29;77.38
41254;BME280;26987;59.928;30.306;2023-03-13T02:17:12;99533.81;;;-6.18;77.63
41254;BME280;26987;59.928;30.306;2023-03-13T02:19:43;99548.63;;;-6.18;77.94
41254;BME280;26987;59.928;30.306;2023-03-13T02:22:20;99548.63;;;-6.18;77.98
41254;BME280;26987;59.928;30.306;2023-03-13T02:24:55;99520.16;;;-6.43;77.54
41254;BME280;26987;59.928;30.306;2023-03-13T02:27:26;99547.88;;;-6.30;77.85
41254;BME280;26987;59.928;30.306;2023-03-13T02:29:54;99536.78;;;-6.44;77.58
41254;BME280;26987;59.928;30.306;2023-03-13T02:32:23;99554.66;;;-6.39;77.56
41254;BME280;26987;59.928;30.306;2023-03-13T02:34:56;99558.75;;;-6.47;77.81
41254;BME280;26987;59.928;30.306;2023-03-13T02:37:26;99523.53;;;-6.74;77.88
41254;BME280;26987;59.928;30.306;2023-03-13T02:39:57;99538.44;;;-6.76;77.79
41254;BME280;26987;59.928;30.306;2023-03-13T02:42:29;99567.31;;;-6.56;78.11
41254;BME280;26987;59.928;30.306;2023-03-13T02:44:58;99582.25;;;-6.58;77.97
41254;BME280;26987;59.928;30.306;2023-03-13T02:47:26;99581.81;;;-6.63;78.30
41254;BME280;26987;59.928;30.306;2023-03-13T02:49:54;99590.47;;;-6.63;78.61
41254;BME280;26987;59.928;30.306;2023-03-13T02:52:25;99557.19;;;-6.82;78.39
41254;BME280;26987;59.928;30.306;2023-03-13T02:54:57;99584.16;;;-6.60;78.12
41254;BME280;26987;59.928;30.306;2023-03-13T02:57:27;99600.50;;;-6.58;78.42
41254;BME280;26987;59.928;30.306;2023-03-13T02:59:56;99604.31;;;-6.62;78.93
41254;BME280;26987;59.928;30.306;2023-03-13T03:02:24;99608.00;;;-6.65;79.07
41254;BME280;26987;59.928;30.306;2023-03-13T03:04:53;99604.00;;;-6.69;79.76
41254;BME280;26987;59.928;30.306;2023-03-13T03:07:21;99599.25;;;-6.75;80.74
41254;BME280;26987;59.928;30.306;2023-03-13T03:09:49;99614.53;;;-6.71;81.69
41254;BME280;26987;59.928;30.306;2023-03-13T03:12:19;99614.53;;;-6.71;82.79
41254;BME280;26987;59.928;30.306;2023-03-13T03:14:47;99621.41;;;-6.69;83.72
41254;BME280;26987;59.928;30.306;2023-03-13T03:17:17;99622.25;;;-6.69;83.90
41254;BME280;26987;59.928;30.306;2023-03-13T03:19:45;99604.03;;;-6.92;83.97
41254;BME280;26987;59.928;30.306;2023-03-13T03:22:13;99631.50;;;-6.76;84.24
41254;BME280;26987;59.928;30.306;2023-03-13T03:24:41;99637.53;;;-6.76;83.67
41254;BME280;26987;59.928;30.306;2023-03-13T03:27:09;99638.13;;;-6.84;84.36
41254;BME280;26987;59.928;30.306;2023-03-13T03:29:43;99635.44;;;-6.93;83.93
41254;BME280;26987;59.928;30.306;2023-03-13T03:32:11;99643.25;;;-6.93;84.34
41254;BME280;26987;59.928;30.306;2023-03-13T03:34:40;99654.66;;;-6.94;83.93
41254;BME280;26987;59.928;30.306;2023-03-13T03:37:08;99637.59;;;-7.10;83.58
41254;BME280;26987;59.928;30.306;2023-03-13T03:39:36;99652.25;;;-7.09;84.19
41254;BME280;26987;59.928;30.306;2023-03-13T03:42:05;99658.56;;;-7.12;83.92
41254;BME280;26987;59.928;30.306;2023-03-13T03:44:35;99665.91;;;-7.17;83.94
41254;BME280;26987;59.928;30.306;2023-03-13T03:47:04;99662.47;;;-7.17;84.22
41254;BME280;26987;59.928;30.306;2023-03-13T03:49:36;99649.91;;;-7.35;84.59
41254;BME280;26987;59.928;30.306;2023-03-13T03:52:06;99666.72;;;-7.28;84.69
41254;BME280;26987;59.928;30.306;2023-03-13T03:54:38;99674.03;;;-7.33;84.51
41254;BME280;26987;59.928;30.306;2023-03-13T03:57:06;99673.59;;;-7.38;85.05
41254;BME280;26987;59.928;30.306;2023-03-13T03:59:35;99680.69;;;-7.40;85.46
41254;BME280;26987;59.928;30.306;2023-03-13T04:02:06;99684.47;;;-7.44;86.15
41254;BME280;26987;59.928;30.306;2023-03-13T04:04:35;99685.16;;;-7.42;86.21
41254;BME280;26987;59.928;30.306;2023-03-13T04:07:13;99685.41;;;-7.45;87.05
41254;BME280;26987;59.928;30.306;2023-03-13T04:09:41;99688.72;;;-7.43;87.19
41254;BME280;26987;59.928;30.306;2023-03-13T04:12:14;99698.44;;;-7.45;87.53
41254;BME280;26987;59.928;30.306;2023-03-13T04:14:45;99680.41;;;-7.60;87.78
41254;BME280;26987;59.928;30.306;2023-03-13T04:17:15;99696.75;;;-7.47;87.74
41254;BME280;26987;59.928;30.306;2023-03-13T04:19:44;99710.63;;;-7.46;88.51
41254;BME280;26987;59.928;30.306;2023-03-13T04:22:14;99714.06;;;-7.45;88.61
41254;BME280;26987;59.928;30.306;2023-03-13T04:24:47;99705.03;;;-7.53;88.71
41254;BME280;26987;59.928;30.306;2023-03-13T04:27:15;99720.22;;;-7.47;89.16
41254;BME280;26987;59.928;30.306;2023-03-13T04:29:45;99721.03;;;-7.46;89.13
41254;BME280;26987;59.928;30.306;2023-03-13T04:32:31;99733.34;;;-7.48;89.37
41254;BME280;26987;59.928;30.306;2023-03-13T04:35:20;99728.97;;;-7.48;89.39
41254;BME280;26987;59.928;30.306;2023-03-13T04:38:08;99734.91;;;-7.45;89.30
41254;BME280;26987;59.928;30.306;2023-03-13T04:41:04;99741.03;;;-7.47;89.71
41254;BME280;26987;59.928;30.306;2023-03-13T04:43:52;99746.13;;;-7.45;89.23
41254;BME280;26987;59.928;30.306;2023-03-13T04:46:35;99752.06;;;-7.43;89.61
41254;BME280;26987;59.928;30.306;2023-03-13T04:49:24;99747.56;;;-7.41;89.45
41254;BME280;26987;59.928;30.306;2023-03-13T04:52:11;99727.91;;;-7.45;89.33
41254;BME280;26987;59.928;30.306;2023-03-13T04:55:08;99749.81;;;-7.36;89.24
41254;BME280;26987;59.928;30.306;2023-03-13T04:57:45;99765.13;;;-7.31;88.97
41254;BME280;26987;59.928;30.306;2023-03-13T05:00:23;99760.75;;;-7.31;89.39
41254;BME280;26987;59.928;30.306;2023-03-13T05:03:09;99758.19;;;-6.97;89.16
41254;BME280;26987;59.928;30.306;2023-03-13T05:06:00;99770.56;;;-5.43;85.83
41254;BME280;26987;59.928;30.306;2023-03-13T05:09:03;99765.72;;;-3.42;77.57
41254;BME280;26987;59.928;30.306;2023-03-13T05:11:51;99780.22;;;-1.96;70.22
41254;BME280;26987;59.928;30.306;2023-03-13T05:14:37;99763.91;;;-1.27;65.34
41254;BME280;26987;59.928;30.306;2023-03-13T05:17:30;99781.22;;;-0.28;60.49
41254;BME280;26987;59.928;30.306;2023-03-13T05:20:20;99792.91;;;0.38;57.56
41254;BME280;26987;59.928;30.306;2023-03-13T05:23:20;99792.13;;;0.79;55.99
41254;BME280;26987;59.928;30.306;2023-03-13T05:26:14;99790.00;;;1.48;53.56
41254;BME280;26987;59.928;30.306;2023-03-13T05:29:09;99791.00;;;2.19;51.19
41254;BME280;26987;59.928;30.306;2023-03-13T05:32:03;99807.69;;;2.89;48.55
41254;BME280;26987;59.928;30.306;2023-03-13T05:35:03;99796.59;;;3.39;46.76
41254;BME280;26987;59.928;30.306;2023-03-13T05:38:06;99799.78;;;3.80;46.21
41254;BME280;26987;59.928;30.306;2023-03-13T05:40:52;99797.63;;;4.06;44.17
41254;BME280;26987;59.928;30.306;2023-03-13T05:43:38;99807.41;;;4.42;43.11
41254;BME280;26987;59.928;30.306;2023-03-13T05:46:18;99809.25;;;4.63;43.50
41254;BME280;26987;59.928;30.306;2023-03-13T05:49:00;99810.72;;;4.95;42.14
41254;BME280;26987;59.928;30.306;2023-03-13T05:51:57;99804.25;;;5.04;41.29
41254;BME280;26987;59.928;30.306;2023-03-13T05:54:39;99811.69;;;5.15;40.59
41254;BME280;26987;59.928;30.306;2023-03-13T05:57:09;99810.28;;;5.20;40.22
41254;BME280;26987;59.928;30.306;2023-03-13T05:59:47;99805.50;;;5.37;39.87
41254;BME280;26987;59.928;30.306;2023-03-13T06:02:45;99813.47;;;5.72;39.41
41254;BME280;26987;59.928;30.306;2023-03-13T06:05:18;99811.53;;;5.59;39.09
41254;BME280;26987;59.928;30.306;2023-03-13T06:07:48;99815.69;;;5.68;39.40
41254;BME280;26987;59.928;30.306;2023-03-13T06:10:16;99819.78;;;5.71;38.67
41254;BME280;26987;59.928;30.306;2023-03-13T06:12:51;99816.31;;;6.20;39.05
41254;BME280;26987;59.928;30.306;2023-03-13T06:15:20;99813.34;;;5.87;38.53
41254;BME280;26987;59.928;30.306;2023-03-13T06:18:13;99827.47;;;5.95;38.39
41254;BME280;26987;59.928;30.306;2023-03-13T06:20:41;99816.94;;;5.73;38.56
41254;BME280;26987;59.928;30.306;2023-03-13T06:23:08;99828.78;;;5.70;38.38
41254;BME280;26987;59.928;30.306;2023-03-13T06:25:36;99827.56;;;5.66;38.56
41254;BME280;26987;59.928;30.306;2023-03-13T06:28:04;99841.25;;;5.70;39.47
41254;BME280;26987;59.928;30.306;2023-03-13T06:30:32;99833.53;;;5.39;39.52
41254;BME280;26987;59.928;30.306;2023-03-13T06:33:00;99839.56;;;4.98;40.64
41254;BME280;26987;59.928;30.306;2023-03-13T06:35:29;99839.03;;;4.22;41.85
41254;BME280;26987;59.928;30.306;2023-03-13T06:37:57;99846.13;;;3.99;42.97
41254;BME280;26987;59.928;30.306;2023-03-13T06:40:25;99850.00;;;3.66;43.30
41254;BME280;26987;59.928;30.306;2023-03-13T06:42:53;99851.16;;;2.95;46.17
41254;BME280;26987;59.928;30.306;2023-03-13T06:45:21;99845.41;;;2.13;48.03
41254;BME280;26987;59.928;30.306;2023-03-13T06:47:48;99848.63;;;1.43;50.49
41254;BME280;26987;59.928;30.306;2023-03-13T06:50:17;99833.00;;;0.83;52.21
41254;BME280;26987;59.928;30.306;2023-03-13T06:52:47;99841.28;;;0.88;54.10
41254;BME280;26987;59.928;30.306;2023-03-13T06:55:14;99855.44;;;0.87;53.77
41254;BME280;26987;59.928;30.306;2023-03-13T06:57:42;99851.63;;;0.65;55.04
41254;BME280;26987;59.928;30.306;2023-03-13T07:00:13;99847.81;;;0.43;56.85
41254;BME280;26987;59.928;30.306;2023-03-13T07:02:41;99854.22;;;0.32;57.26
41254;BME280;26987;59.928;30.306;2023-03-13T07:05:09;99858.97;;;0.20;58.96
41254;BME280;26987;59.928;30.306;2023-03-13T07:07:37;99873.16;;;0.19;58.99
41254;BME280;26987;59.928;30.306;2023-03-13T07:10:07;99867.56;;;0.22;59.62
41254;BME280;26987;59.928;30.306;2023-03-13T07:12:36;99882.16;;;0.08;59.16
41254;BME280;26987;59.928;30.306;2023-03-13T07:15:05;99869.34;;;-0.22;59.97
41254;BME280;26987;59.928;30.306;2023-03-13T07:17:33;99871.84;;;-0.20;60.26
41254;BME280;26987;59.928;30.306;2023-03-13T07:20:01;99884.41;;;-0.06;59.67
41254;BME280;26987;59.928;30.306;2023-03-13T07:22:30;99891.03;;;-0.02;59.49
41254;BME280;26987;59.928;30.306;2023-03-13T07:24:58;99885.53;;;-0.17;59.61
41254;BME280;26987;59.928;30.306;2023-03-13T07:27:27;99904.94;;;0.09;59.77
41254;BME280;26987;59.928;30.306;2023-03-13T07:29:55;99897.72;;;-0.16;61.58
41254;BME280;26987;59.928;30.306;2023-03-13T07:32:23;99900.13;;;-0.57;62.64
41254;BME280;26987;59.928;30.306;2023-03-13T07:34:51;99887.06;;;-0.85;63.95
41254;BME280;26987;59.928;30.306;2023-03-13T07:37:18;99897.09;;;-0.89;64.25
41254;BME280;26987;59.928;30.306;2023-03-13T07:39:46;99901.78;;;-1.01;63.82
41254;BME280;26987;59.928;30.306;2023-03-13T07:42:14;99897.16;;;-0.99;64.35
41254;BME280;26987;59.928;30.306;2023-03-13T07:44:43;99904.34;;;-0.83;64.49
41254;BME280;26987;59.928;30.306;2023-03-13T07:47:11;99917.19;;;-0.61;63.23
41254;BME280;26987;59.928;30.306;2023-03-13T07:49:39;99918.97;;;-0.44;62.30
41254;BME280;26987;59.928;30.306;2023-03-13T07:52:09;99924.31;;;-0.27;61.42
41254;BME280;26987;59.928;30.306;2023-03-13T07:54:37;99930.69;;;-0.11;60.54
41254;BME280;26987;59.928;30.306;2023-03-13T07:57:05;99915.66;;;0.16;60.27
41254;BME280;26987;59.928;30.306;2023-03-13T07:59:33;99928.59;;;0.44;57.33
41254;BME280;26987;59.928;30.306;2023-03-13T08:02:02;99913.75;;;0.34;57.61
41254;BME280;26987;59.928;30.306;2023-03-13T08:04:30;99903.84;;;0.28;56.91
41254;BME280;26987;59.928;30.306;2023-03-13T08:06:58;99928.88;;;0.24;56.40
41254;BME280;26987;59.928;30.306;2023-03-13T08:09:26;99939.38;;;0.16;58.03
41254;BME280;26987;59.928;30.306;2023-03-13T08:11:53;99934.34;;;0.31;58.39
41254;BME280;26987;59.928;30.306;2023-03-13T08:14:21;99906.00;;;0.33;57.26
41254;BME280;26987;59.928;30.306;2023-03-13T08:16:49;99934.59;;;0.71;56.90
41254;BME280;26987;59.928;30.306;2023-03-13T08:19:18;99942.03;;;0.75;56.85
41254;BME280;26987;59.928;30.306;2023-03-13T08:21:46;99947.50;;;0.82;56.61
41254;BME280;26987;59.928;30.306;2023-03-13T08:24:14;99955.72;;;0.71;57.38
41254;BME280;26987;59.928;30.306;2023-03-13T08:26:42;99964.09;;;0.49;56.90
41254;BME280;26987;59.928;30.306;2023-03-13T08:29:12;99960.91;;;0.37;58.66
41254;BME280;26987;59.928;30.306;2023-03-13T08:31:42;99944.88;;;0.22;58.33
41254;BME280;26987;59.928;30.306;2023-03-13T08:34:11;99971.41;;;0.21;58.59
41254;BME280;26987;59.928;30.306;2023-03-13T08:36:41;99957.44;;;0.02;59.31
41254;BME280;26987;59.928;30.306;2023-03-13T08:39:11;99889.94;;;-0.52;60.56
41254;BME280;26987;59.928;30.306;2023-03-13T08:41:40;99980.25;;;-0.15;61.25
41254;BME280;26987;59.928;30.306;2023-03-13T08:44:10;99971.06;;;-0.11;62.70
41254;BME280;26987;59.928;30.306;2023-03-13T08:46:38;99968.16;;;0.01;61.23
41254;BME280;26987;59.928;30.306;2023-03-13T08:49:07;99972.75;;;-0.02;60.68
41254;BME280;26987;59.928;30.306;2023-03-13T08:51:35;99991.41;;;0.05;61.41
41254;BME280;26987;59.928;30.306;2023-03-13T08:54:05;99991.81;;;0.19;61.86
41254;BME280;26987;59.928;30.306;2023-03-13T08:56:33;100007.09;;;0.42;60.72
41254;BME280;26987;59.928;30.306;2023-03-13T08:59:03;100005.16;;;0.52;61.04
41254;BME280;26987;59.928;30.306;2023-03-13T09:01:32;99995.59;;;0.59;61.07
41254;BME280;26987;59.928;30.306;2023-03-13T09:04:01;100001.03;;;0.49;61.14
41254;BME280;26987;59.928;30.306;2023-03-13T09:06:28;100014.22;;;0.49;61.09
41254;BME280;26987;59.928;30.306;2023-03-13T09:08:57;100000.56;;;0.19;61.83
41254;BME280;26987;59.928;30.306;2023-03-13T09:11:26;100025.97;;;0.29;62.00
41254;BME280;26987;59.928;30.306;2023-03-13T09:13:54;100023.16;;;0.30;62.96
41254;BME280;26987;59.928;30.306;2023-03-13T09:16:25;100022.88;;;0.33;63.35
41254;BME280;26987;59.928;30.306;2023-03-13T09:18:55;100031.88;;;0.22;63.40
41254;BME280;26987;59.928;30.306;2023-03-13T09:21:25;100032.38;;;0.26;63.29
41254;BME280;26987;59.928;30.306;2023-03-13T09:23:53;100044.66;;;0.35;63.00
41254;BME280;26987;59.928;30.306;2023-03-13T09:26:21;100043.00;;;0.34;63.01
41254;BME280;26987;59.928;30.306;2023-03-13T09:28:50;100042.69;;;0.37;62.67
41254;BME280;26987;59.928;30.306;2023-03-13T09:31:21;100045.31;;;0.37;63.00
41254;BME280;26987;59.928;30.306;2023-03-13T09:33:49;100050.28;;;0.41;63.05
41254;BME280;26987;59.928;30.306;2023-03-13T09:36:18;100057.56;;;0.47;64.13
41254;BME280;26987;59.928;30.306;2023-03-13T09:38:46;100058.22;;;0.49;63.91
41254;BME280;26987;59.928;30.306;2023-03-13T09:41:21;100065.59;;;0.37;64.73
41254;BME280;26987;59.928;30.306;2023-03-13T09:43:52;100056.59;;;0.48;63.85
41254;BME280;26987;59.928;30.306;2023-03-13T09:46:24;100068.25;;;0.10;66.24
41254;BME280;26987;59.928;30.306;2023-03-13T09:48:56;99998.97;;;-0.45;65.29
41254;BME280;26987;59.928;30.306;2023-03-13T09:51:28;100053.56;;;-0.10;66.68
41254;BME280;26987;59.928;30.306;2023-03-13T09:54:00;100074.06;;;-0.22;67.45
41254;BME280;26987;59.928;30.306;2023-03-13T09:56:38;100062.13;;;-0.35;68.27
41254;BME280;26987;59.928;30.306;2023-03-13T09:59:14;100065.06;;;-0.56;68.92
41254;BME280;26987;59.928;30.306;2023-03-13T10:01:46;100099.59;;;-0.59;69.97
41254;BME280;26987;59.928;30.306;2023-03-13T10:04:26;100085.09;;;-0.64;70.82
41254;BME280;26987;59.928;30.306;2023-03-13T10:06:55;100080.75;;;-0.83;71.31
41254;BME280;26987;59.928;30.306;2023-03-13T10:09:28;100084.50;;;-0.85;72.41
41254;BME280;26987;59.928;30.306;2023-03-13T10:12:05;100090.84;;;-0.78;72.47
41254;BME280;26987;59.928;30.306;2023-03-13T10:14:41;100104.28;;;-0.81;72.83
41254;BME280;26987;59.928;30.306;2023-03-13T10:17:17;100097.69;;;-0.85;73.64
41254;BME280;26987;59.928;30.306;2023-03-13T10:19:52;100092.22;;;-1.02;74.01
41254;BME280;26987;59.928;30.306;2023-03-13T10:22:24;100107.84;;;-0.91;74.47
41254;BME280;26987;59.928;30.306;2023-03-13T10:24:56;100077.22;;;-1.20;75.18
41254;BME280;26987;59.928;30.306;2023-03-13T10:27:25;100115.09;;;-1.03;75.75
41254;BME280;26987;59.928;30.306;2023-03-13T10:29:54;100115.47;;;-0.97;75.89
41254;BME280;26987;59.928;30.306;2023-03-13T10:32:22;100118.41;;;-1.00;75.98
41254;BME280;26987;59.928;30.306;2023-03-13T10:34:54;100117.13;;;-0.96;76.08
41254;BME280;26987;59.928;30.306;2023-03-13T10:37:24;100118.84;;;-1.05;76.02
41254;BME280;26987;59.928;30.306;2023-03-13T10:39:53;100129.28;;;-1.13;76.00
41254;BME280;26987;59.928;30.306;2023-03-13T10:42:26;100130.25;;;-1.15;75.80
41254;BME280;26987;59.928;30.306;2023-03-13T10:44:57;100133.03;;;-1.16;76.19
41254;BME280;26987;59.928;30.306;2023-03-13T10:47:26;100131.94;;;-1.23;75.90
41254;BME280;26987;59.928;30.306;2023-03-13T10:49:56;100126.72;;;-1.33;75.95
41254;BME280;26987;59.928;30.306;2023-03-13T10:52:34;100127.78;;;-1.26;75.58
41254;BME280;26987;59.928;30.306;2023-03-13T10:55:03;100083.31;;;-1.57;76.00
41254;BME280;26987;59.928;30.306;2023-03-13T10:57:33;100144.94;;;-1.22;76.42
41254;BME280;26987;59.928;30.306;2023-03-13T11:00:04;100140.22;;;-1.18;75.93
41254;BME280;26987;59.928;30.306;2023-03-13T11:02:49;100141.44;;;-1.12;75.69
41254;BME280;26987;59.928;30.306;2023-03-13T11:05:32;100137.16;;;-1.13;75.29
41254;BME280;26987;59.928;30.306;2023-03-13T11:08:20;100128.88;;;-1.19;74.45
41254;BME280;26987;59.928;30.306;2023-03-13T11:10:57;100144.38;;;-1.16;74.25
41254;BME280;26987;59.928;30.306;2023-03-13T11:13:36;100151.69;;;-1.09;74.60
41254;BME280;26987;59.928;30.306;2023-03-13T11:16:17;100151.00;;;-1.11;73.83
41254;BME280;26987;59.928;30.306;2023-03-13T11:21:54;100157.34;;;-1.04;71.92
41254;BME280;26987;59.928;30.306;2023-03-13T11:24:33;100139.50;;;-1.10;71.74
41254;BME280;26987;59.928;30.306;2023-03-13T11:27:07;100161.06;;;-0.97;71.69
41254;BME280;26987;59.928;30.306;2023-03-13T11:29:46;100166.31;;;-0.97;72.13
41254;BME280;26987;59.928;30.306;2023-03-13T11:32:22;100167.69;;;-0.93;72.51
41254;BME280;26987;59.928;30.306;2023-03-13T11:34:55;100115.63;;;-1.27;71.80
41254;BME280;26987;59.928;30.306;2023-03-13T11:37:27;100173.34;;;-0.87;71.19
41254;BME280;26987;59.928;30.306;2023-03-13T11:40:03;100166.41;;;-0.89;71.28
41254;BME280;26987;59.928;30.306;2023-03-13T11:42:42;100179.75;;;-0.62;71.06
41254;BME280;26987;59.928;30.306;2023-03-13T11:45:22;100146.75;;;-0.84;71.02
41254;BME280;26987;59.928;30.306;2023-03-13T11:47:59;100179.19;;;-0.66;70.74
41254;BME280;26987;59.928;30.306;2023-03-13T11:50:36;100179.81;;;-0.54;70.85
41254;BME280;26987;59.928;30.306;2023-03-13T11:53:21;100181.72;;;-0.46;70.63
41254;BME280;26987;59.928;30.306;2023-03-13T11:56:11;100178.47;;;-0.58;69.42
41254;BME280;26987;59.928;30.306;2023-03-13T11:58:50;100192.41;;;-0.47;68.80
41254;BME280;26987;59.928;30.306;2023-03-13T12:01:24;100140.63;;;-0.85;68.61
41254;BME280;26987;59.928;30.306;2023-03-13T12:03:57;100201.97;;;-0.46;68.95
41254;BME280;26987;59.928;30.306;2023-03-13T12:06:29;100197.81;;;-0.49;68.59
41254;BME280;26987;59.928;30.306;2023-03-13T12:09:03;100193.97;;;-0.55;68.85
41254;BME280;26987;59.928;30.306;2023-03-13T12:11:35;100181.97;;;-0.67;68.78
41254;BME280;26987;59.928;30.306;2023-03-13T12:14:12;100217.09;;;-0.48;68.13
41254;BME280;26987;59.928;30.306;2023-03-13T12:16:44;100207.22;;;-0.46;68.45
41254;BME280;26987;59.928;30.306;2023-03-13T12:19:20;100197.53;;;-0.46;67.52
41254;BME280;26987;59.928;30.306;2023-03-13T12:21:51;100213.41;;;-0.38;67.27
41254;BME280;26987;59.928;30.306;2023-03-13T12:24:24;100203.88;;;-0.39;67.93
41254;BME280;26987;59.928;30.306;2023-03-13T12:26:57;100208.44;;;-0.41;67.09
41254;BME280;26987;59.928;30.306;2023-03-13T12:29:42;100211.72;;;-0.29;66.83
41254;BME280;26987;59.928;30.306;2023-03-13T12:32:14;100218.69;;;-0.38;66.57
41254;BME280;26987;59.928;30.306;2023-03-13T12:34:52;100193.44;;;-0.58;66.95
41254;BME280;26987;59.928;30.306;2023-03-13T12:37:27;100214.03;;;-0.44;66.64
41254;BME280;26987;59.928;30.306;2023-03-13T12:40:00;100219.22;;;-0.34;66.51
41254;BME280;26987;59.928;30.306;2023-03-13T12:42:41;100227.13;;;-0.34;66.50
41254;BME280;26987;59.928;30.306;2023-03-13T12:45:15;100228.28;;;-0.36;65.82
41254;BME280;26987;59.928;30.306;2023-03-13T12:51:00;100215.69;;;-0.43;66.21
41254;BME280;26987;59.928;30.306;2023-03-13T12:53:48;100226.16;;;-0.33;65.91
41254;BME280;26987;59.928;30.306;2023-03-13T12:56:35;100231.72;;;-0.36;65.29
41254;BME280;26987;59.928;30.306;2023-03-13T12:59:10;100229.84;;;-0.44;65.18
41254;BME280;26987;59.928;30.306;2023-03-13T13:01:44;100227.09;;;-0.52;64.66
41254;BME280;26987;59.928;30.306;2023-03-13T13:04:16;100227.81;;;-0.60;65.08
41254;BME280;26987;59.928;30.306;2023-03-13T13:07:01;100213.00;;;-0.61;65.78
41254;BME280;26987;59.928;30.306;2023-03-13T13:09:31;100226.88;;;-0.59;65.14
41254;BME280;26987;59.928;30.306;2023-03-13T13:12:02;100245.94;;;-0.47;64.67
41254;BME280;26987;59.928;30.306;2023-03-13T13:15:01;100239.09;;;-0.40;64.65
41254;BME280;26987;59.928;30.306;2023-03-13T13:17:55;100251.00;;;-0.35;63.70
41254;BME280;26987;59.928;30.306;2023-03-13T13:20:45;100251.28;;;-0.39;63.66
41254;BME280;26987;59.928;30.306;2023-03-13T13:23:29;100237.28;;;-0.39;62.78
41254;BME280;26987;59.928;30.306;2023-03-13T13:32:36;100247.28;;;-0.43;60.92
41254;BME280;26987;59.928;30.306;2023-03-13T13:35:24;100248.28;;;-0.44;60.83